Time;durP1;ratioP1;P1;durP2;ratioP2;P2;SDS_P1;SDS_P2;PMS_P1;PMS_P2;Temp;Humidity;BMP_temperature;BMP_pressure;BME280_temperature;BME280_humidity;BME280_pressure;Samples;Min_cycle;Max_cycle;Signal;HPM_P1;HPM_P2
2024/03/02 00:00:15;;;;;;;17.57;13.17;;;;;;;9.07;nan;99641.03;5046280;28;20222;-82
2024/03/02 00:02:42;;;;;;;16.73;12.67;;;;;;;9.08;82.19;99649.84;5054995;28;20231;-80
2024/03/02 00:05:11;;;;;;;18.47;13.17;;;;;;;9.07;82.46;99650.78;5062665;28;20235;-82
2024/03/02 00:07:41;;;;;;;20.10;14.33;;;;;;;9.03;82.89;99647.50;5053930;28;20657;-81
2024/03/02 00:10:11;;;;;;;19.37;13.40;;;;;;;9.05;82.53;99649.09;5060667;28;20208;-81
2024/03/02 00:12:38;;;;;;;21.10;13.37;;;;;;;9.02;83.34;99654.63;5043847;28;20577;-81
2024/03/02 00:15:07;;;;;;;19.50;13.37;;;;;;;8.99;83.63;99646.03;5051872;28;20289;-80
2024/03/02 00:17:34;;;;;;;20.83;13.97;;;;;;;8.97;83.26;99646.13;5061170;28;20208;-80
2024/03/02 00:20:03;;;;;;;20.03;13.90;;;;;;;8.98;83.23;99647.00;5052526;28;20202;-80
2024/03/02 00:22:30;;;;;;;22.13;14.90;;;;;;;8.95;83.68;99642.78;5051992;28;20202;-81
2024/03/02 00:24:58;;;;;;;22.63;14.33;;;;;;;8.97;83.77;99645.28;5053483;28;20229;-84
2024/03/02 00:27:24;;;;;;;20.93;14.10;;;;;;;8.93;83.88;99643.84;5051543;28;20198;-81
2024/03/02 00:29:51;;;;;;;22.10;14.63;;;;;;;8.92;83.69;99647.47;5050944;28;20259;-80
2024/03/02 00:32:18;;;;;;;22.50;14.83;;;;;;;8.90;84.09;99642.25;5057263;28;20216;-81
2024/03/02 00:34:44;;;;;;;20.87;15.13;;;;;;;8.88;83.82;99646.81;5045558;28;20210;-82
2024/03/02 00:37:12;;;;;;;23.70;14.90;;;;;;;8.85;84.63;99641.72;5054141;28;20213;-81
2024/03/02 00:39:39;;;;;;;23.20;15.20;;;;;;;8.86;84.38;99648.75;5062651;28;20213;-83
2024/03/02 00:42:08;;;;;;;22.77;13.97;;;;;;;8.84;85.15;99648.00;5055363;28;20217;-81
2024/03/02 00:44:35;;;;;;;24.40;15.97;;;;;;;8.83;84.39;99648.94;5054611;28;20644;-81
2024/03/02 00:47:03;;;;;;;25.87;15.87;;;;;;;8.83;85.07;99646.28;5062461;28;20216;-83
2024/03/02 00:49:29;;;;;;;22.80;15.10;;;;;;;8.83;85.37;99648.94;5063637;28;20205;-81
2024/03/02 00:51:56;;;;;;;22.57;14.80;;;;;;;8.84;85.06;99639.19;5056477;28;20598;-81
2024/03/02 00:54:24;;;;;;;21.27;14.13;;;;;;;8.82;85.06;99649.06;5060422;28;20228;-81
2024/03/02 00:56:50;;;;;;;22.57;13.90;;;;;;;8.81;85.07;99645.56;5055169;28;20202;-80
2024/03/02 00:59:18;;;;;;;23.67;14.87;;;;;;;8.85;84.18;99655.00;5057757;28;20220;-81
2024/03/02 01:01:45;;;;;;;22.40;14.93;;;;;;;8.81;84.34;99653.53;5060421;28;20586;-80
2024/03/02 01:04:12;;;;;;;24.77;15.60;;;;;;;8.82;85.20;99657.03;5055387;28;20233;-82
2024/03/02 01:06:38;;;;;;;22.57;14.87;;;;;;;8.80;85.25;99648.31;5057844;28;20232;-80
2024/03/02 01:09:05;;;;;;;23.77;14.80;;;;;;;8.83;85.08;99648.94;5050182;28;20213;-80
2024/03/02 01:11:32;;;;;;;23.50;14.23;;;;;;;8.83;84.77;99648.94;5056025;28;20202;-80
2024/03/02 01:13:58;;;;;;;24.27;15.97;;;;;;;8.84;84.77;99658.63;5055641;28;20229;-83
2024/03/02 01:16:26;;;;;;;26.57;15.97;;;;;;;8.82;84.76;99652.56;5059848;28;20197;-82
2024/03/02 01:18:53;;;;;;;21.90;14.70;;;;;;;8.81;85.10;99664.13;5053722;28;20202;-81
2024/03/02 01:21:19;;;;;;;25.27;16.03;;;;;;;8.83;84.97;99659.56;5063094;28;20236;-81
2024/03/02 01:23:46;;;;;;;23.33;15.73;;;;;;;8.81;85.47;99658.81;5064089;28;20217;-83
2024/03/02 01:26:12;;;;;;;23.67;14.80;;;;;;;8.78;85.12;99659.03;5054489;28;20202;-81
2024/03/02 01:28:38;;;;;;;23.60;15.47;;;;;;;8.77;85.59;99659.19;5051357;28;20210;-82
2024/03/02 01:31:05;;;;;;;24.70;15.20;;;;;;;8.77;85.70;99662.69;5056014;28;20205;-84
2024/03/02 01:33:33;;;;;;;23.27;15.80;;;;;;;8.78;85.06;99656.38;5053466;28;20226;-81
2024/03/02 01:35:59;;;;;;;24.93;16.00;;;;;;;8.79;85.02;99655.44;5054719;28;20214;-81
2024/03/02 01:38:26;;;;;;;22.17;15.57;;;;;;;8.79;85.25;99657.25;5054055;28;20212;-81
2024/03/02 01:40:52;;;;;;;28.27;17.17;;;;;;;8.76;85.28;99654.81;5060115;28;20205;-80
2024/03/02 01:43:19;;;;;;;23.40;15.43;;;;;;;8.73;85.92;99661.19;5053736;28;20226;-82
2024/03/02 01:45:45;;;;;;;22.70;14.93;;;;;;;8.74;86.17;99652.28;5052757;28;20931;-83
2024/03/02 01:48:12;;;;;;;26.20;16.40;;;;;;;8.72;85.75;99664.81;5050407;28;20678;-82
2024/03/02 01:50:40;;;;;;;24.97;16.13;;;;;;;8.68;85.86;99656.22;5056324;28;20334;-80
2024/03/02 01:53:06;;;;;;;23.63;15.47;;;;;;;8.67;86.22;99658.97;5053823;28;20229;-81
2024/03/02 01:55:33;;;;;;;24.90;17.60;;;;;;;8.66;86.33;99657.28;5057975;28;20353;-81
2024/03/02 01:57:59;;;;;;;24.33;15.70;;;;;;;8.63;86.45;99652.19;5053170;28;20288;-81
2024/03/02 02:00:26;;;;;;;26.63;15.93;;;;;;;8.64;86.45;99645.91;5057112;28;20217;-81
2024/03/02 02:02:53;;;;;;;22.50;15.60;;;;;;;8.65;86.29;99650.28;5058064;28;20233;-82
2024/03/02 02:05:19;;;;;;;24.63;15.60;;;;;;;8.66;86.30;99641.34;5054450;28;20468;-81
2024/03/02 02:07:47;;;;;;;23.03;14.63;;;;;;;8.66;86.27;99642.19;5054035;28;20216;-81
2024/03/02 02:10:14;;;;;;;22.53;15.37;;;;;;;8.65;85.69;99639.66;5055069;28;20579;-81
2024/03/02 02:12:40;;;;;;;25.13;16.87;;;;;;;8.63;86.43;99641.56;5058648;28;20351;-84
2024/03/02 02:15:22;;;;;;;22.37;15.70;;;;;;;8.61;85.83;99641.66;5054265;28;20694;-84
2024/03/02 02:17:49;;;;;;;27.17;15.60;;;;;;;8.59;86.48;99635.66;5054011;28;20329;-82
2024/03/02 02:20:16;;;;;;;26.60;16.40;;;;;;;8.55;86.10;99634.16;5054769;28;20209;-80
2024/03/02 02:22:55;;;;;;;23.97;14.77;;;;;;;8.54;86.46;99624.50;5053151;28;20233;-82
2024/03/02 02:25:22;;;;;;;23.70;15.77;;;;;;;8.53;86.52;99625.47;5051996;28;20244;-82
2024/03/02 02:27:48;;;;;;;27.50;16.27;;;;;;;8.52;86.46;99622.91;5051792;28;20654;-81
2024/03/02 02:30:19;;;;;;;25.60;15.43;;;;;;;8.49;86.40;99626.63;5053280;28;20208;-82
2024/03/02 02:32:46;;;;;;;22.90;14.70;;;;;;;8.46;87.17;99624.19;5055194;28;20234;-81
2024/03/02 02:35:12;;;;;;;23.20;15.23;;;;;;;8.47;86.77;99617.94;5054549;28;20201;-81
2024/03/02 02:37:39;;;;;;;21.40;15.03;;;;;;;8.45;87.10;99621.63;5055919;28;20210;-81
2024/03/02 02:40:08;;;;;;;23.70;15.87;;;;;;;8.42;87.21;99617.38;5053042;28;20202;-80
2024/03/02 02:42:35;;;;;;;22.87;15.90;;;;;;;8.38;87.68;99620.41;5044121;28;20206;-81
2024/03/02 02:45:02;;;;;;;24.30;15.63;;;;;;;8.36;87.66;99623.16;5052531;28;20234;-82
2024/03/02 02:47:29;;;;;;;23.90;16.17;;;;;;;8.37;87.55;99621.34;5050280;28;20217;-81
2024/03/02 02:49:56;;;;;;;23.67;15.60;;;;;;;8.32;87.76;99625.16;5052506;28;20308;-81
2024/03/02 02:52:22;;;;;;;24.70;16.07;;;;;;;8.33;87.84;99613.59;5055112;28;20213;-81
2024/03/02 02:54:49;;;;;;;26.43;15.47;;;;;;;8.31;87.42;99618.13;5054072;28;20206;-80
2024/03/02 02:57:16;;;;;;;24.30;15.30;;;;;;;8.28;87.11;99621.00;5053415;28;20205;-81
2024/03/02 02:59:43;;;;;;;26.00;15.53;;;;;;;8.27;87.23;99623.75;5052348;28;20205;-82
2024/03/02 03:02:09;;;;;;;26.60;14.63;;;;;;;8.27;88.02;99613.16;5050073;28;20220;-83
2024/03/02 03:04:36;;;;;;;26.20;15.97;;;;;;;8.25;87.53;99605.28;5055475;28;20233;-81
2024/03/02 03:07:02;;;;;;;22.07;15.03;;;;;;;8.26;87.23;99606.13;5055245;28;20205;-81
2024/03/02 03:09:29;;;;;;;23.90;15.40;;;;;;;8.25;87.89;99602.63;5055787;28;20208;-80
2024/03/02 03:11:55;;;;;;;21.93;14.00;;;;;;;8.23;87.66;99601.91;5057763;28;20266;-80
2024/03/02 03:14:23;;;;;;;21.20;14.97;;;;;;;8.24;87.59;99602.78;5047916;28;20233;-80
2024/03/02 03:16:50;;;;;;;22.57;14.17;;;;;;;8.21;87.24;99601.19;5052788;28;20205;-81
2024/03/02 03:19:17;;;;;;;22.93;15.03;;;;;;;8.21;87.64;99609.13;5052274;28;20292;-81
2024/03/02 03:21:44;;;;;;;23.07;15.00;;;;;;;8.20;87.24;99604.78;5054660;28;20206;-81
2024/03/02 03:24:10;;;;;;;20.93;14.43;;;;;;;8.19;87.16;99604.88;5049970;28;20260;-82
2024/03/02 03:26:37;;;;;;;23.90;14.57;;;;;;;8.16;87.57;99608.59;5053611;28;20210;-81
2024/03/02 03:29:03;;;;;;;21.43;14.37;;;;;;;8.17;87.65;99604.16;5051651;28;20210;-82
2024/03/02 03:31:31;;;;;;;23.43;13.90;;;;;;;8.16;87.35;99605.09;5052123;28;20210;-81
2024/03/02 03:33:58;;;;;;;21.07;12.80;;;;;;;8.16;87.30;99598.00;5052917;28;20951;-82
2024/03/02 03:36:25;;;;;;;19.00;12.87;;;;;;;8.15;86.66;99592.78;5055060;28;20760;-80
2024/03/02 03:38:51;;;;;;;19.97;12.40;;;;;;;8.13;86.87;99587.59;5045591;28;20206;-82
2024/03/02 03:41:17;;;;;;;22.33;13.63;;;;;;;8.11;86.47;99602.75;5049240;28;20197;-83
2024/03/02 03:43:44;;;;;;;23.47;13.43;;;;;;;8.10;86.65;99602.88;5056818;28;20222;-81
2024/03/02 03:46:10;;;;;;;18.77;13.57;;;;;;;8.08;86.63;99597.66;5055266;28;20963;-80
2024/03/02 03:48:38;;;;;;;20.63;13.63;;;;;;;8.08;86.78;99599.47;5049045;28;20785;-81
2024/03/02 03:51:05;;;;;;;18.40;12.43;;;;;;;8.07;86.81;99595.13;5055890;28;20208;-80
2024/03/02 03:53:32;;;;;;;22.33;13.00;;;;;;;8.05;86.40;99599.72;5054301;28;20221;-81
2024/03/02 03:55:58;;;;;;;19.53;13.17;;;;;;;8.05;86.65;99599.72;5050384;28;20198;-80
2024/03/02 03:58:25;;;;;;;18.47;12.80;;;;;;;8.05;86.33;99597.91;5057562;28;20213;-81
2024/03/02 04:00:51;;;;;;;19.80;13.47;;;;;;;8.01;86.72;99605.22;5052968;28;20213;-81
2024/03/02 04:03:17;;;;;;;19.00;12.67;;;;;;;8.00;86.41;99600.03;5052639;28;20221;-81
2024/03/02 04:05:45;;;;;;;18.93;12.70;;;;;;;7.97;86.78;99598.44;5058906;28;20225;-81
2024/03/02 04:08:12;;;;;;;21.03;12.13;;;;;;;7.95;86.23;99597.69;5051495;28;20571;-80
2024/03/02 04:10:40;;;;;;;19.13;12.80;;;;;;;7.94;86.26;99589.81;5054794;28;20231;-80
2024/03/02 04:13:07;;;;;;;18.40;12.90;;;;;;;7.92;86.88;99589.94;5056662;28;20229;-80
2024/03/02 04:15:33;;;;;;;21.77;13.13;;;;;;;7.89;87.08;99591.94;5052440;28;20319;-80
2024/03/02 04:18:00;;;;;;;18.13;13.63;;;;;;;7.88;86.91;99595.56;5051661;28;20214;-80
2024/03/02 04:20:26;;;;;;;22.93;13.17;;;;;;;7.89;87.44;99594.59;5057083;28;20201;-80
2024/03/02 04:22:54;;;;;;;22.77;14.03;;;;;;;7.87;87.70;99593.88;5056539;28;20226;-80
2024/03/02 04:25:21;;;;;;;20.43;13.00;;;;;;;7.84;88.18;99594.94;5056399;28;20232;-80
2024/03/02 04:27:47;;;;;;;20.83;13.50;;;;;;;7.85;87.59;99590.47;5055474;28;20202;-80
2024/03/02 04:30:14;;;;;;;22.00;13.87;;;;;;;7.87;87.68;99601.84;5055659;28;20232;-80
2024/03/02 04:32:42;;;;;;;20.37;13.47;;;;;;;7.86;88.18;99605.44;5051088;28;20213;-81
2024/03/02 04:35:10;;;;;;;22.73;14.43;;;;;;;7.87;87.96;99601.84;5056067;28;20255;-82
2024/03/02 04:37:36;;;;;;;25.40;14.17;;;;;;;7.85;88.04;99599.28;5054743;28;20300;-82
2024/03/02 04:40:07;;;;;;;22.53;14.03;;;;;;;7.90;88.81;99601.59;5056449;28;20209;-81
2024/03/02 04:42:34;;;;;;;22.07;14.67;;;;;;;7.92;88.23;99602.34;5055303;28;20221;-82
2024/03/02 04:45:00;;;;;;;23.93;15.53;;;;;;;7.89;89.03;99592.78;5055222;28;20237;-80
2024/03/02 04:47:27;;;;;;;22.53;14.57;;;;;;;7.89;89.25;99595.44;5058898;28;20565;-80
2024/03/02 04:49:53;;;;;;;25.10;16.33;;;;;;;7.89;88.76;99590.13;5054927;28;20213;-80
2024/03/02 04:52:20;;;;;;;24.13;15.90;;;;;;;7.88;88.97;99590.28;5049820;28;20205;-80
2024/03/02 04:57:37;;;;;;;24.07;15.93;;;;;;;7.80;89.76;99595.25;5042259;28;20929;-81
2024/03/02 05:00:06;;;;;;;28.00;15.90;;;;;;;7.84;90.20;99594.09;5057420;28;20607;-80
2024/03/02 05:02:33;;;;;;;26.70;16.23;;;;;;;7.77;89.72;99588.34;5049658;28;20221;-82
2024/03/02 05:04:59;;;;;;;25.97;16.13;;;;;;;7.76;89.84;99593.75;5052200;28;20235;-80
2024/03/02 05:07:26;;;;;;;25.17;15.50;;;;;;;7.73;90.35;99600.09;5054268;28;20250;-80
2024/03/02 05:09:52;;;;;;;25.83;16.20;;;;;;;7.72;90.78;99587.81;5054597;28;20212;-80
2024/03/02 05:12:47;;;;;;;27.63;16.53;;;;;;;7.72;90.69;99595.75;5054994;28;20209;-80
2024/03/02 05:15:15;;;;;;;25.63;15.83;;;;;;;7.68;91.06;99594.28;5053802;28;20205;-80
2024/03/02 05:17:43;;;;;;;24.73;15.73;;;;;;;7.65;90.98;99602.44;5054296;28;20228;-82
2024/03/02 05:20:10;;;;;;;22.80;15.47;;;;;;;7.60;90.69;99597.44;5054434;28;20213;-83
2024/03/02 05:22:37;;;;;;;27.73;17.17;;;;;;;7.58;91.22;99591.41;5053045;28;20201;-81
2024/03/02 05:25:05;;;;;;;28.40;16.40;;;;;;;7.57;91.41;99604.75;5051133;28;20234;-82
2024/03/02 05:27:32;;;;;;;25.83;15.60;;;;;;;7.52;91.83;99596.28;5050523;28;20197;-80
2024/03/02 05:29:59;;;;;;;27.07;15.83;;;;;;;7.49;91.91;99599.97;5051870;28;20202;-82
2024/03/02 05:32:27;;;;;;;24.00;16.13;;;;;;;7.47;92.18;99604.53;5052669;28;20206;-81
2024/03/02 05:34:53;;;;;;;24.60;16.30;;;;;;;7.43;92.46;99603.03;5055358;28;20208;-80
2024/03/02 05:37:20;;;;;;;33.70;19.97;;;;;;;7.40;92.89;99605.88;5055098;28;20213;-80
2024/03/02 05:39:46;;;;;;;31.73;19.73;;;;;;;7.38;93.09;99607.78;5056219;28;20662;-81
2024/03/02 05:42:13;;;;;;;30.93;17.90;;;;;;;7.36;93.17;99607.03;5049410;28;20824;-80
2024/03/02 05:44:39;;;;;;;31.50;17.53;;;;;;;7.31;92.76;99609.16;5051834;28;20856;-81
2024/03/02 05:47:08;;;;;;;26.33;15.77;;;;;;;7.29;93.23;99608.41;5047325;28;20244;-80
2024/03/02 05:49:36;;;;;;;25.93;16.10;;;;;;;7.24;92.69;99603.41;5050874;28;20579;-80
2024/03/02 05:52:03;;;;;;;31.43;16.13;;;;;;;7.19;92.08;99602.84;5052949;28;20673;-80
2024/03/02 05:54:29;;;;;;;26.30;16.20;;;;;;;7.13;92.09;99610.38;5053442;28;20225;-83
2024/03/02 05:56:55;;;;;;;30.37;16.73;;;;;;;7.08;92.15;99615.97;5057123;28;20217;-81
2024/03/02 05:59:22;;;;;;;30.57;17.00;;;;;;;7.03;91.85;99620.69;5055252;28;20217;-81
2024/03/02 06:01:50;;;;;;;25.80;15.90;;;;;;;7.00;91.66;99617.41;5052752;28;20266;-83
2024/03/02 06:04:17;;;;;;;24.20;15.50;;;;;;;6.94;92.38;99608.06;5053045;28;20751;-83
2024/03/02 06:06:45;;;;;;;26.83;16.53;;;;;;;6.90;92.39;99614.50;5054759;28;20229;-80
2024/03/02 06:09:12;;;;;;;25.80;16.13;;;;;;;6.85;92.82;99608.66;5052061;28;20646;-80
2024/03/02 06:11:40;;;;;;;27.70;16.07;;;;;;;6.81;92.06;99615.94;5057278;28;20256;-81
2024/03/02 06:14:07;;;;;;;25.03;15.57;;;;;;;6.79;92.58;99623.16;5058864;28;20267;-82
2024/03/02 06:16:34;;;;;;;28.63;16.30;;;;;;;6.75;93.35;99632.22;5055561;28;20205;-80
2024/03/02 06:19:01;;;;;;;25.97;15.63;;;;;;;6.73;94.17;99634.13;5057153;28;20194;-80
2024/03/02 06:21:28;;;;;;;28.07;16.60;;;;;;;6.72;94.26;99639.50;5054624;28;20839;-80
2024/03/02 06:23:56;;;;;;;29.47;16.53;;;;;;;6.68;93.81;99632.69;5054013;28;20225;-80
2024/03/02 06:26:23;;;;;;;26.30;16.03;;;;;;;6.69;94.30;99639.69;5052354;28;20227;-80
2024/03/02 06:28:49;;;;;;;28.40;16.17;;;;;;;6.72;95.47;99640.34;5052446;28;20214;-81
2024/03/02 06:31:15;;;;;;;26.60;15.43;;;;;;;6.72;96.07;99645.66;5055417;28;20654;-81
2024/03/02 06:33:42;;;;;;;23.53;15.60;;;;;;;6.76;96.52;99639.22;5052329;28;20594;-80
2024/03/02 06:36:09;;;;;;;28.47;17.00;;;;;;;6.78;96.80;99644.41;5053019;28;20721;-81
2024/03/02 06:38:36;;;;;;;25.43;16.30;;;;;;;6.80;97.46;99648.66;5055815;28;20209;-81
2024/03/02 06:41:04;;;;;;;26.40;16.23;;;;;;;6.83;97.39;99650.25;5052507;28;20206;-80
2024/03/02 06:43:30;;;;;;;24.87;15.60;;;;;;;6.86;97.67;99656.19;5052102;28;20218;-80
2024/03/02 06:45:57;;;;;;;27.07;17.03;;;;;;;6.96;98.24;99653.81;5055411;28;20232;-80
2024/03/02 06:48:24;;;;;;;24.67;15.77;;;;;;;6.99;98.53;99644.84;5053194;28;20205;-81
2024/03/02 06:50:51;;;;;;;25.73;16.57;;;;;;;7.05;98.39;99655.03;5066021;28;20615;-80
2024/03/02 06:53:19;;;;;;;26.77;16.33;;;;;;;7.10;98.08;99661.72;5057604;28;20271;-81
2024/03/02 06:55:46;;;;;;;23.33;15.47;;;;;;;7.15;97.89;99650.84;5053048;28;20201;-83
2024/03/02 06:58:15;;;;;;;24.07;15.60;;;;;;;7.22;97.50;99645.03;5048252;28;20307;-82
2024/03/02 07:00:41;;;;;;;24.47;16.10;;;;;;;7.28;98.02;99649.94;5061973;28;20239;-82
2024/03/02 07:03:08;;;;;;;23.30;14.60;;;;;;;7.36;97.47;99659.16;5050448;28;20221;-81
2024/03/02 07:05:34;;;;;;;26.37;15.47;;;;;;;7.39;97.94;99658.97;5053749;28;20765;-82
2024/03/02 07:08:01;;;;;;;23.10;15.37;;;;;;;7.41;97.21;99655.25;5053501;28;20693;-82
2024/03/02 07:10:27;;;;;;;26.43;16.07;;;;;;;7.48;96.85;99650.41;5054030;28;20202;-80
2024/03/02 07:12:54;;;;;;;22.90;14.60;;;;;;;7.51;97.27;99653.72;5052471;28;20226;-80
2024/03/02 07:15:29;;;;;;;24.63;14.83;;;;;;;7.54;96.85;99650.84;5060232;28;20699;-82
2024/03/02 07:17:56;;;;;;;25.93;15.47;;;;;;;7.59;96.32;99651.38;5057089;28;20617;-81
2024/03/02 07:20:23;;;;;;;22.67;14.73;;;;;;;7.63;96.82;99654.69;5056710;28;20205;-81
2024/03/02 07:22:49;;;;;;;23.67;15.73;;;;;;;7.67;96.27;99656.19;5055997;28;20228;-81
2024/03/02 07:25:16;;;;;;;25.00;14.83;;;;;;;7.72;96.35;99661.16;5056493;28;20212;-82
2024/03/02 07:27:43;;;;;;;25.00;15.43;;;;;;;7.72;96.63;99663.81;5053289;28;20233;-84
2024/03/02 07:30:15;;;;;;;25.50;15.00;;;;;;;7.76;96.54;99658.22;5058311;28;20194;-81
2024/03/02 07:32:45;;;;;;;23.27;15.27;;;;;;;7.77;95.94;99670.50;5053820;28;20236;-81
2024/03/02 07:35:12;;;;;;;29.03;15.43;;;;;;;7.77;96.20;99667.00;5052761;28;20209;-82
2024/03/02 07:37:39;;;;;;;23.53;15.10;;;;;;;7.79;96.14;99679.22;5048876;28;20212;-82
2024/03/02 07:40:09;;;;;;;25.97;15.83;;;;;;;7.85;95.72;99680.59;5055048;28;20206;-81
2024/03/02 07:42:35;;;;;;;25.07;15.57;;;;;;;7.86;95.94;99687.59;5052740;28;20209;-80
2024/03/02 07:45:02;;;;;;;24.20;14.67;;;;;;;7.93;95.79;99680.91;5053895;28;20205;-82
2024/03/02 07:47:28;;;;;;;23.50;15.10;;;;;;;7.95;95.88;99689.63;5059041;28;20221;-81
2024/03/02 07:49:56;;;;;;;25.37;15.40;;;;;;;8.04;95.00;99696.97;5055648;28;20214;-83
2024/03/02 07:52:23;;;;;;;26.30;16.43;;;;;;;8.08;94.51;99693.13;5049516;28;20202;-82
2024/03/02 07:54:49;;;;;;;23.00;14.37;;;;;;;8.14;94.70;99698.03;5053519;28;20225;-82
2024/03/02 07:57:16;;;;;;;21.73;14.43;;;;;;;8.22;94.29;99702.81;5055570;28;20193;-83
2024/03/02 07:59:43;;;;;;;19.80;13.67;;;;;;;8.28;93.92;99711.19;5052274;28;20197;-83
2024/03/02 08:02:10;;;;;;;24.77;14.07;;;;;;;8.37;92.78;99703.59;5052293;28;20193;-84
2024/03/02 08:04:37;;;;;;;21.83;13.30;;;;;;;8.46;91.30;99702.94;5052196;28;20221;-84
2024/03/02 08:07:05;;;;;;;20.80;13.40;;;;;;;8.51;91.76;99706.13;5053685;28;20233;-83
2024/03/02 08:09:32;;;;;;;23.33;14.10;;;;;;;8.57;91.01;99711.03;5057349;28;20205;-82
2024/03/02 08:11:58;;;;;;;23.00;13.70;;;;;;;8.60;90.49;99705.47;5053983;28;20212;-85
2024/03/02 08:14:25;;;;;;;20.03;13.07;;;;;;;8.65;90.04;99709.50;5052117;28;20255;-84
2024/03/02 08:16:51;;;;;;;21.93;13.57;;;;;;;8.71;90.16;99708.25;5060094;28;20198;-82
2024/03/02 08:19:18;;;;;;;25.30;14.47;;;;;;;8.77;89.71;99712.28;5056776;28;20202;-83
2024/03/02 08:21:45;;;;;;;21.30;13.03;;;;;;;8.84;89.31;99711.72;5054491;28;20664;-82
2024/03/02 08:24:13;;;;;;;23.03;14.20;;;;;;;8.91;89.31;99713.00;5049265;28;20795;-82
2024/03/02 08:26:47;;;;;;;23.03;13.70;;;;;;;8.99;88.03;99718.59;5052802;28;20681;-82
2024/03/02 08:29:13;;;;;;;21.60;12.57;;;;;;;9.08;87.69;99717.09;5053721;28;20244;-82
2024/03/02 08:31:40;;;;;;;21.43;13.30;;;;;;;9.16;86.24;99716.53;5046646;28;20204;-81
2024/03/02 08:34:06;;;;;;;23.37;13.73;;;;;;;9.19;85.80;99708.34;5050701;28;20222;-83
2024/03/02 08:36:33;;;;;;;23.03;14.20;;;;;;;9.22;85.92;99719.59;5054697;28;20202;-83
2024/03/02 08:38:59;;;;;;;20.63;13.70;;;;;;;9.27;85.46;99709.50;5050861;28;20210;-81
2024/03/02 08:41:27;;;;;;;21.10;13.20;;;;;;;9.34;85.68;99716.03;5053734;28;20202;-83
2024/03/02 08:43:54;;;;;;;20.63;13.10;;;;;;;9.46;84.75;99716.97;5048094;28;20232;-82
2024/03/02 08:46:20;;;;;;;20.33;13.63;;;;;;;9.57;85.17;99713.50;5053231;28;20261;-83
2024/03/02 08:48:47;;;;;;;21.33;14.17;;;;;;;9.67;84.57;99710.03;5050666;28;20209;-84
2024/03/02 08:51:13;;;;;;;20.13;13.13;;;;;;;9.77;83.65;99717.34;5053670;28;20580;-82
2024/03/02 08:53:40;;;;;;;19.03;13.30;;;;;;;9.86;82.73;99704.19;5053097;28;20244;-84
2024/03/02 08:56:07;;;;;;;21.17;13.27;;;;;;;9.95;81.83;99713.31;5052958;28;20235;-85
2024/03/02 08:58:35;;;;;;;19.97;13.17;;;;;;;10.02;82.15;99715.41;5055196;28;20235;-82
2024/03/02 09:01:02;;;;;;;19.80;13.13;;;;;;;10.09;81.65;99721.94;5056628;28;20213;-84
2024/03/02 09:03:29;;;;;;;18.23;12.67;;;;;;;10.19;79.97;99726.59;5053723;28;20294;-82
2024/03/02 09:05:55;;;;;;;19.43;12.27;;;;;;;10.24;80.81;99725.25;5057851;28;20209;-81
2024/03/02 09:08:22;;;;;;;16.97;13.10;;;;;;;10.32;80.53;99730.84;5059012;28;20207;-81
2024/03/02 09:10:48;;;;;;;16.47;12.37;;;;;;;10.43;80.18;99725.53;5054426;28;20206;-86
2024/03/02 09:13:15;;;;;;;18.47;11.77;;;;;;;10.52;79.72;99728.47;5054937;28;20278;-83
2024/03/02 09:15:44;;;;;;;17.40;11.83;;;;;;;10.63;77.44;99725.81;5056083;28;20583;-82
2024/03/02 09:18:10;;;;;;;14.07;10.00;;;;;;;10.67;76.82;99728.13;5057400;28;20221;-82
2024/03/02 09:20:37;;;;;;;14.27;10.07;;;;;;;10.75;74.77;99723.03;5057201;28;20218;-81
2024/03/02 09:23:04;;;;;;;14.13;9.40;;;;;;;10.75;74.18;99727.50;5058083;28;20236;-81
2024/03/02 09:25:30;;;;;;;15.30;9.77;;;;;;;10.81;73.70;99729.69;5059567;28;20205;-85
2024/03/02 09:27:57;;;;;;;15.00;9.77;;;;;;;10.87;72.68;99731.03;5055420;28;20227;-83
2024/03/02 09:30:23;;;;;;;15.53;11.57;;;;;;;10.93;71.82;99722.53;5053328;28;20258;-82
2024/03/02 09:32:51;;;;;;;13.77;9.83;;;;;;;10.97;70.92;99719.50;5053721;28;20864;-83
2024/03/02 09:35:18;;;;;;;13.50;9.60;;;;;;;10.99;71.10;99722.91;5053861;28;20211;-81
2024/03/02 09:37:44;;;;;;;13.57;10.20;;;;;;;11.03;72.06;99727.03;5056489;28;20200;-81
2024/03/02 09:40:11;;;;;;;13.60;9.53;;;;;;;11.12;71.91;99728.94;5059915;28;20222;-84
2024/03/02 09:42:38;;;;;;;13.60;9.97;;;;;;;11.23;69.69;99729.91;5054036;28;20229;-83
2024/03/02 09:45:07;;;;;;;13.40;9.20;;;;;;;11.26;69.04;99724.34;5053933;28;20663;-79
2024/03/02 09:47:39;;;;;;;13.00;9.30;;;;;;;11.26;70.29;99729.66;5057000;28;20232;-82
2024/03/02 09:50:10;;;;;;;13.10;9.50;;;;;;;11.29;69.84;99734.72;5053141;28;20209;-80
2024/03/02 09:52:38;;;;;;;14.00;8.40;;;;;;;11.32;69.07;99738.00;5047622;28;20254;-81
2024/03/02 09:55:06;;;;;;;12.43;9.00;;;;;;;11.35;68.83;99739.56;5052441;28;20300;-82
2024/03/02 09:57:42;;;;;;;13.70;9.67;;;;;;;11.40;69.38;99743.56;5057528;28;20554;-81
2024/03/02 10:00:14;;;;;;;12.20;8.83;;;;;;;11.45;69.28;99746.72;5055714;28;20223;-81
2024/03/02 10:02:41;;;;;;;13.27;9.57;;;;;;;11.51;69.09;99741.84;5051687;28;20711;-82
2024/03/02 10:05:09;;;;;;;14.17;9.43;;;;;;;11.59;69.16;99736.75;5052515;28;20630;-81
2024/03/02 10:07:36;;;;;;;12.03;8.77;;;;;;;11.63;68.94;99739.03;5050279;28;20239;-82
2024/03/02 10:10:14;;;;;;;15.50;9.27;;;;;;;11.67;69.19;99743.13;5053883;28;20209;-80
2024/03/02 10:12:40;;;;;;;13.40;10.47;;;;;;;11.71;69.44;99725.91;5055026;28;20547;-82
2024/03/02 10:15:09;;;;;;;13.57;8.57;;;;;;;11.76;68.00;99728.22;5052782;28;20210;-81
2024/03/02 10:17:36;;;;;;;11.47;8.40;;;;;;;11.75;66.74;99734.50;5051128;28;20216;-81
2024/03/02 10:20:24;;;;;;;11.33;7.77;;;;;;;11.75;66.01;99740.69;5054867;28;20213;-82
2024/03/02 10:22:50;;;;;;;11.60;8.53;;;;;;;11.78;66.27;99743.13;5058069;28;20267;-83
2024/03/02 10:25:29;;;;;;;13.80;9.33;;;;;;;11.83;67.25;99740.06;5060327;28;20202;-82
2024/03/02 10:27:58;;;;;;;13.90;10.40;;;;;;;11.89;67.00;99741.38;5052699;28;20222;-85
2024/03/02 10:30:25;;;;;;;14.27;8.83;;;;;;;11.91;66.86;99742.09;5049840;28;20202;-81
2024/03/02 10:32:52;;;;;;;13.93;9.83;;;;;;;11.93;67.46;99741.00;5058896;28;20229;-81
2024/03/02 10:35:21;;;;;;;12.33;8.57;;;;;;;11.95;66.64;99738.22;5054165;28;20206;-82
2024/03/02 10:37:48;;;;;;;13.73;9.63;;;;;;;11.94;67.12;99737.38;5051521;28;20202;-82
2024/03/02 10:40:15;;;;;;;11.63;8.47;;;;;;;11.94;66.55;99744.53;5054325;28;20299;-82
2024/03/02 10:42:43;;;;;;;11.53;8.67;;;;;;;11.99;66.30;99739.66;5045349;28;20709;-83
2024/03/02 10:45:10;;;;;;;12.93;8.90;;;;;;;11.97;66.15;99738.94;5054492;28;20205;-81
2024/03/02 10:47:38;;;;;;;16.60;8.80;;;;;;;11.96;66.34;99739.91;5048805;28;20222;-82
2024/03/02 10:50:08;;;;;;;11.57;8.77;;;;;;;11.99;66.28;99739.66;5046152;28;20210;-82
2024/03/02 10:52:36;;;;;;;11.40;8.83;;;;;;;11.99;65.83;99735.16;5049058;28;20218;-83
2024/03/02 10:55:05;;;;;;;13.03;8.50;;;;;;;12.03;66.54;99738.41;5054683;28;20269;-82
2024/03/02 10:57:38;;;;;;;11.27;8.97;;;;;;;12.09;66.45;99738.75;5057764;28;20688;-82
2024/03/02 11:00:14;;;;;;;11.57;7.83;;;;;;;12.13;65.93;99736.69;5049219;28;20274;-81
2024/03/02 11:02:43;;;;;;;13.90;9.73;;;;;;;12.20;65.64;99735.16;5050764;28;20560;-82
2024/03/02 11:05:11;;;;;;;13.00;8.37;;;;;;;12.24;65.61;99733.94;5051568;28;20217;-83
2024/03/02 11:07:41;;;;;;;11.57;8.27;;;;;;;12.29;65.48;99736.22;5046982;28;20319;-83
2024/03/02 11:10:09;;;;;;;10.53;7.40;;;;;;;12.32;64.41;99734.16;5048681;28;20242;-82
2024/03/02 11:12:39;;;;;;;11.93;8.30;;;;;;;12.33;64.73;99738.50;5055676;28;20209;-81
2024/03/02 11:15:11;;;;;;;11.07;8.03;;;;;;;12.39;63.53;99737.97;5053068;28;20581;-81
2024/03/02 11:17:39;;;;;;;10.60;7.43;;;;;;;12.38;63.41;99741.63;5048918;28;20198;-81
2024/03/02 11:20:08;;;;;;;9.50;7.23;;;;;;;12.42;63.96;99737.72;5059069;28;20212;-82
2024/03/02 11:22:36;;;;;;;9.80;7.33;;;;;;;12.54;63.46;99746.47;5045196;28;20239;-83
2024/03/02 11:25:05;;;;;;;10.53;7.40;;;;;;;12.57;63.54;99740.88;5050575;28;20209;-84
2024/03/02 11:28:03;;;;;;;10.60;6.90;;;;;;;12.65;63.27;99741.09;5048780;28;20217;-81